createdAt,value
2023-04-10T00:01:52.698Z,101093.06
2023-04-10T00:04:19.933Z,101093.69
2023-04-10T00:06:49.232Z,101106.25
2023-04-10T00:09:19.161Z,101080.53
2023-04-10T00:11:46.730Z,101098.25
2023-04-10T00:14:15.492Z,101062.81
2023-04-10T00:16:50.054Z,101116.00
2023-04-10T00:19:21.611Z,101077.09
2023-04-10T00:21:48.491Z,101104.06
2023-04-10T00:24:17.838Z,101090.25
2023-04-10T00:26:46.698Z,101104.16
2023-04-10T00:29:13.699Z,101109.53
2023-04-10T00:31:43.151Z,101107.00
2023-04-10T00:34:14.826Z,101064.59
2023-04-10T00:36:42.405Z,101105.31
2023-04-10T00:39:10.782Z,101066.41
2023-04-10T00:41:42.850Z,101053.41
2023-04-10T00:44:09.644Z,101108.19
2023-04-10T00:46:38.487Z,101109.19
2023-04-10T00:49:06.668Z,101106.69
2023-04-10T00:51:35.220Z,101099.00
2023-04-10T00:54:03.824Z,101106.78
2023-04-10T00:56:32.477Z,101098.06
2023-04-10T00:58:59.404Z,101074.63
2023-04-10T01:01:26.582Z,101103.47
2023-04-10T01:03:54.668Z,101103.53
2023-04-10T01:06:40.777Z,101101.03
2023-04-10T01:09:37.226Z,101099.38
2023-04-10T01:12:22.103Z,101113.41
2023-04-10T01:14:51.229Z,101093.63
2023-04-10T01:17:36.891Z,101071.19
2023-04-10T01:20:13.760Z,101118.19
2023-04-10T01:23:00.197Z,101104.28
2023-04-10T01:25:49.407Z,101108.81
2023-04-10T01:28:30.771Z,101108.00
2023-04-10T01:31:02.609Z,101095.91
2023-04-10T01:33:43.484Z,101111.41
2023-04-10T01:36:12.352Z,101114.88
2023-04-10T01:38:44.925Z,101106.03
2023-04-10T01:41:12.999Z,101111.19
2023-04-10T01:43:42.105Z,101100.88
2023-04-10T01:46:13.292Z,101099.97
2023-04-10T01:48:41.098Z,101106.13
2023-04-10T01:51:11.460Z,101087.78
2023-04-10T01:53:43.014Z,101096.34
2023-04-10T01:56:11.468Z,101101.59
2023-04-10T01:58:38.488Z,101078.13
2023-04-10T02:01:06.522Z,101086.78
2023-04-10T02:03:34.267Z,101081.50
2023-04-10T02:06:18.589Z,101092.03
2023-04-10T02:08:57.156Z,101075.53
2023-04-10T02:12:09.355Z,101078.00
2023-04-10T02:14:46.545Z,101086.66
2023-04-10T02:17:17.069Z,101062.16
2023-04-10T02:19:47.253Z,101063.03
2023-04-10T02:22:16.236Z,101055.19
2023-04-10T02:24:43.164Z,101064.72
2023-04-10T02:27:09.783Z,101058.50
2023-04-10T02:29:36.616Z,101064.56
2023-04-10T02:32:06.972Z,101068.91
2023-04-10T02:34:33.971Z,101070.63
2023-04-10T02:37:02.202Z,101054.00
2023-04-10T02:39:29.007Z,101066.94
2023-04-10T02:41:58.531Z,101056.41
2023-04-10T02:44:31.286Z,101070.09
2023-04-10T02:47:01.490Z,101071.72
2023-04-10T02:49:28.570Z,101069.91
2023-04-10T02:51:56.782Z,101066.44
2023-04-10T02:54:23.390Z,101066.63
2023-04-10T02:56:50.774Z,101066.66
2023-04-10T02:59:23.671Z,101059.75
2023-04-10T03:01:55.463Z,101045.09
2023-04-10T03:04:23.699Z,101065.19
2023-04-10T03:06:50.491Z,101061.00
2023-04-10T03:09:17.424Z,101046.34
2023-04-10T03:11:46.651Z,101055.88
2023-04-10T03:14:13.560Z,101035.97
2023-04-10T03:16:41.080Z,101052.59
2023-04-10T03:19:07.847Z,101051.69
2023-04-10T03:21:34.549Z,101053.38
2023-04-10T03:24:02.979Z,101030.66
2023-04-10T03:26:30.376Z,101006.19
2023-04-10T03:28:57.362Z,101045.22
2023-04-10T03:31:24.118Z,101045.13
2023-04-10T03:33:57.680Z,101037.16
2023-04-10T03:36:26.133Z,101025.78
2023-04-10T03:38:53.286Z,101037.84
2023-04-10T03:41:25.299Z,101031.78
2023-04-10T03:43:52.693Z,101042.16
2023-04-10T03:46:22.999Z,101028.97
2023-04-10T03:48:51.876Z,101035.00
2023-04-10T03:51:23.994Z,101036.91
2023-04-10T03:53:53.956Z,101035.28
2023-04-10T03:56:21.781Z,101033.63
2023-04-10T03:58:48.661Z,101032.72
2023-04-10T04:01:17.020Z,101022.31
2023-04-10T04:03:44.407Z,101033.66
2023-04-10T04:06:11.446Z,101020.66
2023-04-10T04:08:41.015Z,101025.00
2023-04-10T04:11:09.197Z,101035.44
2023-04-10T04:13:36.385Z,101024.06
2023-04-10T04:16:06.263Z,101031.09
2023-04-10T04:18:35.684Z,101030.31
2023-04-10T04:21:06.895Z,101016.38
2023-04-10T04:23:33.677Z,101025.00
2023-04-10T04:26:00.579Z,101028.59
2023-04-10T04:28:28.934Z,101026.94
2023-04-10T04:31:00.016Z,101035.69
2023-04-10T04:33:26.641Z,101023.59
2023-04-10T04:35:53.359Z,101040.00
2023-04-10T04:38:20.917Z,101014.91
2023-04-10T04:40:47.922Z,101040.91
2023-04-10T04:43:15.018Z,101033.94
2023-04-10T04:45:43.062Z,101033.94
2023-04-10T04:48:10.868Z,101023.63
2023-04-10T04:50:41.348Z,101047.13
2023-04-10T04:53:16.198Z,101048.00
2023-04-10T04:55:44.648Z,101040.09
2023-04-10T04:58:11.614Z,101024.50
2023-04-10T05:00:38.630Z,101014.91
2023-04-10T05:03:15.458Z,101045.31
2023-04-10T05:05:47.716Z,101005.34
2023-04-10T05:08:14.893Z,100983.69
2023-04-10T05:10:42.462Z,101022.78
2023-04-10T05:13:11.879Z,101050.56
2023-04-10T05:15:48.822Z,101047.91
2023-04-10T05:18:22.795Z,101013.22
2023-04-10T05:20:50.375Z,100991.56
2023-04-10T05:23:21.809Z,101043.56
2023-04-10T05:25:52.631Z,101058.44
2023-04-10T05:28:19.604Z,101056.66
2023-04-10T05:30:47.317Z,101056.63
2023-04-10T05:33:14.007Z,101049.69
2023-04-10T05:35:46.200Z,101058.38
2023-04-10T05:38:15.104Z,101058.50
2023-04-10T05:40:48.313Z,101011.75
2023-04-10T05:43:19.825Z,101050.84
2023-04-10T05:45:51.114Z,101052.50
2023-04-10T05:48:19.077Z,101066.31
2023-04-10T05:50:50.417Z,101071.56
2023-04-10T05:53:29.223Z,101069.81
2023-04-10T05:56:00.582Z,101072.44
2023-04-10T05:58:36.548Z,101055.06
2023-04-10T06:01:06.741Z,101068.94
2023-04-10T06:03:33.480Z,101045.50
2023-04-10T06:06:04.853Z,101070.66
2023-04-10T06:08:36.072Z,101061.84
2023-04-10T06:11:04.375Z,101063.50
2023-04-10T06:13:43.305Z,101065.16
2023-04-10T06:16:17.275Z,101006.84
2023-04-10T06:18:51.136Z,101046.63
2023-04-10T06:21:20.188Z,101045.56
2023-04-10T06:23:49.523Z,100983.00
2023-04-10T06:31:44.899Z,101031.50
2023-04-10T06:34:13.274Z,101046.56
2023-04-10T06:36:44.904Z,101046.16
2023-04-10T06:39:13.955Z,101006.09
2023-04-10T06:41:46.204Z,101041.16
2023-04-10T06:44:17.609Z,101048.63
2023-04-10T06:46:50.201Z,101001.34
2023-04-10T06:49:25.391Z,101055.53
2023-04-10T06:51:55.048Z,101035.72
2023-04-10T06:59:56.714Z,101042.22
2023-04-10T07:02:26.596Z,101050.94
2023-04-10T07:07:46.045Z,101044.53
2023-04-10T07:10:22.879Z,101003.06
2023-04-10T07:13:17.420Z,101006.13
2023-04-10T07:16:01.603Z,101039.03
2023-04-10T07:26:46.657Z,101039.94
2023-04-10T07:29:20.765Z,101041.06
2023-04-10T07:31:53.401Z,100992.53
2023-04-10T07:34:28.180Z,101026.59
2023-04-10T07:39:36.269Z,101021.31
2023-04-10T07:42:03.316Z,101019.34
2023-04-10T07:44:44.424Z,101028.72
2023-04-10T07:47:14.035Z,101017.97
2023-04-10T07:49:42.591Z,101012.25
2023-04-10T07:52:17.642Z,101001.69
2023-04-10T07:54:53.666Z,101002.53
2023-04-10T07:57:29.951Z,100996.72
2023-04-10T08:00:10.858Z,101018.22
2023-04-10T08:02:38.560Z,101005.94
2023-04-10T08:05:08.052Z,101000.16
2023-04-10T08:07:38.425Z,100998.66
2023-04-10T08:10:08.725Z,100988.56
2023-04-10T08:12:36.821Z,100993.13
2023-04-10T08:15:22.018Z,100986.47
2023-04-10T08:17:53.181Z,100964.22
2023-04-10T08:20:20.721Z,100978.75
2023-04-10T08:22:58.864Z,100981.41
2023-04-10T08:25:32.378Z,100984.06
2023-04-10T08:30:54.623Z,100972.16
2023-04-10T08:33:22.294Z,100962.63
2023-04-10T08:35:50.561Z,100959.34
2023-04-10T08:38:28.481Z,100965.88
2023-04-10T08:40:58.676Z,100954.97
2023-04-10T08:43:28.601Z,100951.91
2023-04-10T08:45:57.783Z,100931.34
2023-04-10T08:48:35.081Z,100948.84
2023-04-10T08:51:08.803Z,100934.53
2023-04-10T08:53:44.245Z,100943.31
2023-04-10T08:56:18.338Z,100937.00
2023-04-10T08:58:45.993Z,100936.22
2023-04-10T09:01:16.381Z,100943.81
2023-04-10T09:03:43.411Z,100945.66
2023-04-10T09:06:14.395Z,100886.03
2023-04-10T09:08:55.911Z,100926.78
2023-04-10T09:11:31.170Z,100918.81
2023-04-10T09:13:58.393Z,100898.41
2023-04-10T09:16:33.693Z,100926.00
2023-04-10T09:19:05.003Z,100903.31
2023-04-10T09:21:35.684Z,100895.38
2023-04-10T09:24:04.950Z,100891.53
2023-04-10T09:26:34.302Z,100860.31
2023-04-10T09:29:08.975Z,100879.53
2023-04-10T09:31:42.941Z,100884.66
2023-04-10T09:34:18.378Z,100865.72
2023-04-10T09:37:02.177Z,100883.13
2023-04-10T09:39:35.413Z,100869.97
2023-04-10T09:42:06.943Z,100848.53
2023-04-10T09:44:45.924Z,100844.41
2023-04-10T09:52:43.029Z,100847.84
2023-04-10T09:55:20.767Z,100846.50
2023-04-10T09:57:50.623Z,100845.38
2023-04-10T10:00:18.582Z,100842.81
2023-04-10T10:02:47.665Z,100823.47
2023-04-10T10:05:16.775Z,100828.72
2023-04-10T10:07:47.618Z,100818.47
2023-04-10T10:10:18.536Z,100824.66
2023-04-10T10:12:52.459Z,100802.75
2023-04-10T10:15:31.472Z,100791.66
2023-04-10T10:18:07.848Z,100807.00
2023-04-10T10:20:44.738Z,100812.06
2023-04-10T10:23:11.719Z,100760.41
2023-04-10T10:25:39.733Z,100797.75
2023-04-10T10:28:09.748Z,100770.69
2023-04-10T10:30:38.150Z,100786.19
2023-04-10T10:33:08.361Z,100743.03
2023-04-10T10:35:36.311Z,100776.97
2023-04-10T10:38:09.616Z,100756.75
2023-04-10T10:40:41.316Z,100776.34
2023-04-10T10:43:43.141Z,100771.69
2023-04-10T10:46:17.924Z,100760.97
2023-04-10T10:49:02.730Z,100754.06
2023-04-10T10:51:51.372Z,100757.03
2023-04-10T10:54:34.692Z,100752.88
2023-04-10T10:59:50.824Z,100733.88
2023-04-10T11:02:21.776Z,100732.81
2023-04-10T11:04:49.645Z,100735.19
2023-04-10T11:07:25.981Z,100726.75
2023-04-10T11:09:58.712Z,100714.72
2023-04-10T11:12:28.791Z,100712.69
2023-04-10T11:15:06.374Z,100713.13
2023-04-10T11:17:56.063Z,100694.06
2023-04-10T11:20:27.938Z,100684.69
2023-04-10T11:23:13.146Z,100684.13
2023-04-10T11:25:51.475Z,100682.03
2023-04-10T11:28:35.321Z,100666.47
2023-04-10T11:31:22.965Z,100668.44
2023-04-10T11:34:14.066Z,100668.44
2023-04-10T11:36:43.682Z,100660.75
2023-04-10T11:39:24.208Z,100666.91
2023-04-10T11:41:56.283Z,100631.94
2023-04-10T11:44:28.398Z,100655.16
2023-04-10T11:47:03.440Z,100644.66
2023-04-10T11:49:37.093Z,100647.81
2023-04-10T11:54:54.266Z,100642.31
2023-04-10T11:57:21.786Z,100636.59
2023-04-10T11:59:51.559Z,100631.81
2023-04-10T12:02:18.605Z,100625.94
2023-04-10T12:04:49.203Z,100614.06
2023-04-10T12:07:18.900Z,100620.84
2023-04-10T12:09:45.815Z,100614.66
2023-04-10T12:12:20.726Z,100606.38
2023-04-10T12:14:48.750Z,100607.72
2023-04-10T12:17:18.050Z,100603.56
2023-04-10T12:19:47.724Z,100607.38
2023-04-10T12:22:14.666Z,100597.47
2023-04-10T12:24:48.851Z,100597.72
2023-04-10T12:27:29.238Z,100586.88
2023-04-10T12:29:58.539Z,100589.28
2023-04-10T12:32:31.331Z,100587.47
2023-04-10T12:34:59.290Z,100582.16
2023-04-10T12:37:52.332Z,100582.00
2023-04-10T12:40:24.665Z,100575.84
2023-04-10T12:42:52.632Z,100532.75
2023-04-10T12:45:21.308Z,100539.41
2023-04-10T12:47:52.011Z,100564.22
2023-04-10T12:50:21.352Z,100566.19
2023-04-10T12:53:12.671Z,100561.53
2023-04-10T12:55:41.287Z,100546.00
2023-04-10T12:58:23.321Z,100553.94
2023-04-10T13:03:42.790Z,100531.16
2023-04-10T13:06:10.041Z,100529.44
2023-04-10T13:08:45.391Z,100529.88
2023-04-10T13:11:12.610Z,100531.88
2023-04-10T13:13:40.381Z,100516.81
2023-04-10T13:16:12.959Z,100513.50
2023-04-10T13:18:39.920Z,100503.94
2023-04-10T13:21:07.324Z,100517.19
2023-04-10T13:23:38.051Z,100496.38
2023-04-10T13:26:14.078Z,100498.00
2023-04-10T13:31:25.941Z,100502.66
2023-04-10T13:39:23.522Z,100497.88
2023-04-10T13:42:07.242Z,100489.16
2023-04-10T13:44:53.128Z,100472.84
2023-04-10T13:47:27.853Z,100487.13
2023-04-10T13:50:09.315Z,100448.50
2023-04-10T13:55:43.353Z,100473.03
2023-04-10T14:04:09.925Z,100428.75
2023-04-10T14:12:55.667Z,100408.16
2023-04-10T14:15:27.558Z,100448.72
2023-04-10T14:18:02.576Z,100333.66
2023-04-10T14:20:30.352Z,100429.28
2023-04-10T14:25:45.425Z,100370.06
2023-04-10T14:28:25.616Z,100409.97
2023-04-10T14:30:57.335Z,100326.94
2023-04-10T14:33:25.654Z,100372.81
2023-04-10T14:35:56.490Z,100393.25
2023-04-10T14:38:23.357Z,100395.13
2023-04-10T14:40:52.252Z,100385.69
2023-04-10T14:49:17.806Z,100370.69
2023-04-10T14:51:46.882Z,100346.97
2023-04-10T14:54:24.484Z,100367.41
2023-04-10T14:56:55.283Z,100365.13
2023-04-10T14:59:23.460Z,100358.56
2023-04-10T15:01:53.810Z,100342.28
2023-04-10T15:04:21.870Z,100345.09
2023-04-10T15:06:53.091Z,100342.28
2023-04-10T15:09:22.047Z,100339.84
2023-04-10T15:11:49.681Z,100265.44
2023-04-10T15:14:17.717Z,100323.13
2023-04-10T15:16:44.851Z,100287.47
2023-04-10T15:19:12.480Z,100313.88
2023-04-10T15:24:29.169Z,100299.06
2023-04-10T15:27:01.264Z,100297.72
2023-04-10T15:29:58.155Z,100239.44
2023-04-10T15:32:25.448Z,100304.66
2023-04-10T15:35:02.576Z,100291.59
2023-04-10T15:37:36.451Z,100290.56
2023-04-10T15:40:16.097Z,100237.44
2023-04-10T15:42:49.527Z,100224.47
2023-04-10T15:45:23.496Z,100242.84
2023-04-10T15:47:58.532Z,100250.59
2023-04-10T15:50:29.424Z,100181.41
2023-04-10T15:52:56.598Z,100200.44
2023-04-10T15:55:24.774Z,100240.00
2023-04-10T15:58:03.511Z,100234.72
2023-04-10T16:00:37.640Z,100218.34
2023-04-10T16:03:07.951Z,100203.31
2023-04-10T16:08:18.030Z,100218.69
2023-04-10T16:10:47.564Z,100217.19
2023-04-10T16:13:15.958Z,100167.97
2023-04-10T16:15:48.818Z,100166.50
2023-04-10T16:18:17.150Z,100185.31
2023-04-10T16:20:48.476Z,100183.53
2023-04-10T16:23:20.409Z,100183.19
2023-04-10T16:25:52.364Z,100131.66
2023-04-10T16:31:01.395Z,100181.31
2023-04-10T16:33:33.090Z,100180.09
2023-04-10T16:36:05.312Z,100165.13
2023-04-10T16:38:38.389Z,100163.22
2023-04-10T16:41:06.513Z,100148.75
2023-04-10T16:43:33.809Z,100203.03
2023-04-10T16:46:01.299Z,100172.50
2023-04-10T16:48:28.586Z,100178.59
2023-04-10T16:50:58.978Z,100192.19
2023-04-10T16:53:27.516Z,100176.72
2023-04-10T16:56:07.302Z,100122.16
2023-04-10T16:58:51.141Z,100116.78
2023-04-10T17:01:28.193Z,100117.16
2023-04-10T17:04:24.137Z,100141.84
2023-04-10T17:06:57.153Z,100115.88
2023-04-10T17:09:34.514Z,100164.63
2023-04-10T17:12:08.035Z,100135.59
2023-04-10T17:15:09.014Z,100161.50
2023-04-10T17:17:44.001Z,100168.19
2023-04-10T17:20:17.890Z,100162.63
2023-04-10T17:22:54.903Z,100103.59
2023-04-10T17:25:26.306Z,100138.53
2023-04-10T17:27:55.846Z,100141.44
2023-04-10T17:36:09.205Z,100141.91
2023-04-10T17:38:40.378Z,100111.97
2023-04-10T17:41:08.895Z,100132.41
2023-04-10T17:43:40.214Z,100064.75
2023-04-10T17:46:14.736Z,100031.91
2023-04-10T17:48:47.801Z,100034.41
2023-04-10T17:51:16.255Z,100121.66
2023-04-10T17:53:54.150Z,100119.50
2023-04-10T17:56:21.628Z,100109.72
2023-04-10T17:58:52.793Z,100119.09
2023-04-10T18:01:33.174Z,100115.91
2023-04-10T18:04:18.160Z,100098.63
2023-04-10T18:06:46.164Z,100088.59
2023-04-10T18:09:15.000Z,100079.88
2023-04-10T18:11:43.865Z,100116.41
2023-04-10T18:14:11.591Z,100083.59
2023-04-10T18:16:38.396Z,100102.19
2023-04-10T18:19:10.911Z,100111.16
2023-04-10T18:21:47.306Z,100111.16
2023-04-10T18:24:14.709Z,100118.00
2023-04-10T18:26:43.385Z,100078.94
2023-04-10T18:29:13.521Z,100051.97
2023-04-10T18:31:40.143Z,100101.50
2023-04-10T18:34:08.838Z,100095.53
2023-04-10T18:36:38.818Z,100051.47
2023-04-10T18:39:06.909Z,100093.81
2023-04-10T18:41:44.539Z,100051.47
2023-04-10T18:44:22.033Z,100069.56
2023-04-10T18:47:01.369Z,100018.09
2023-04-10T18:49:34.096Z,100107.88
2023-04-10T18:52:09.917Z,100013.19
2023-04-10T18:54:40.874Z,100095.19
2023-04-10T18:57:14.698Z,100026.19
2023-04-10T19:02:33.635Z,100058.81
2023-04-10T19:05:01.649Z,100032.41
2023-04-10T19:07:29.361Z,100017.03
2023-04-10T19:10:01.844Z,100066.59
2023-04-10T19:12:40.868Z,100059.09
2023-04-10T19:15:14.711Z,100084.88
2023-04-10T19:17:51.457Z,100111.09
2023-04-10T19:20:49.387Z,100052.91
2023-04-10T19:23:12.228Z,100108.75
2023-04-10T19:25:42.136Z,100070.16
2023-04-10T19:28:11.602Z,100033.69
2023-04-10T19:30:50.672Z,100091.63
2023-04-10T19:33:19.666Z,100053.91
2023-04-10T19:35:55.160Z,100067.16
2023-04-10T19:38:24.681Z,100082.63
2023-04-10T19:43:49.249Z,100093.84
2023-04-10T19:51:59.751Z,100062.63
2023-04-10T19:54:27.073Z,100068.91
2023-04-10T19:57:02.008Z,100019.03
2023-04-10T19:59:34.926Z,99986.56
2023-04-10T20:02:03.953Z,100018.44
2023-04-10T20:04:38.221Z,100063.34
2023-04-10T20:07:11.183Z,99971.72
2023-04-10T20:09:42.659Z,100011.00
2023-04-10T20:12:12.838Z,99996.59
2023-04-10T20:14:48.062Z,100030.91
2023-04-10T20:17:19.917Z,99981.69
2023-04-10T20:19:48.644Z,100020.34
2023-04-10T20:22:19.229Z,99973.69
2023-04-10T20:24:46.384Z,100020.28
2023-04-10T20:30:07.690Z,99958.00
2023-04-10T20:35:18.080Z,99916.25
2023-04-10T20:37:46.087Z,99990.38
2023-04-10T20:40:20.842Z,99989.22
2023-04-10T20:42:56.255Z,99993.19
2023-04-10T20:45:35.409Z,99937.13
2023-04-10T20:48:16.421Z,99981.69
2023-04-10T20:53:31.989Z,99909.63
2023-04-10T20:59:34.786Z,99936.28
2023-04-10T21:04:59.115Z,99948.00
2023-04-10T21:07:27.918Z,99977.72
2023-04-10T21:10:11.622Z,99974.09
2023-04-10T21:12:41.278Z,99876.09
2023-04-10T21:15:21.182Z,99952.25
2023-04-10T21:17:51.725Z,99933.72
2023-04-10T21:20:20.328Z,99925.72
2023-04-10T21:22:47.924Z,99932.00
2023-04-10T21:25:20.437Z,99942.66
2023-04-10T21:27:53.332Z,99936.25
2023-04-10T21:30:22.759Z,99836.88
2023-04-10T21:32:49.857Z,99912.16
2023-04-10T21:35:19.321Z,99860.69
2023-04-10T21:38:02.104Z,99885.91
2023-04-10T21:40:40.766Z,99786.47
2023-04-10T21:43:07.859Z,99800.34
2023-04-10T21:45:35.812Z,99795.50
2023-04-10T21:48:11.366Z,99844.00
2023-04-10T21:53:45.580Z,99827.56
2023-04-10T21:56:15.054Z,99827.78
2023-04-10T22:03:58.696Z,99873.16
2023-04-10T22:06:28.997Z,99849.75
2023-04-10T22:08:56.965Z,99886.38
2023-04-10T22:11:28.234Z,99838.28
2023-04-10T22:14:17.045Z,99838.25
2023-04-10T22:16:55.320Z,99905.06
2023-04-10T22:19:27.672Z,99869.38
2023-04-10T22:21:54.422Z,99904.66
2023-04-10T22:24:21.247Z,99884.63
2023-04-10T22:26:51.382Z,99927.13
2023-04-10T22:29:23.773Z,99932.41
2023-04-10T22:31:53.887Z,99846.38
2023-04-10T22:34:20.933Z,99918.16
2023-04-10T22:36:49.964Z,99887.63
2023-04-10T22:39:18.644Z,99930.16
2023-04-10T22:41:47.453Z,99929.59
2023-04-10T22:44:14.943Z,99943.81
2023-04-10T22:46:44.185Z,99943.44
2023-04-10T22:49:12.198Z,99936.41
2023-04-10T22:51:40.583Z,99923.53
2023-04-10T22:54:09.734Z,99915.75
2023-04-10T22:56:38.103Z,99912.53
2023-04-10T22:59:06.789Z,99846.00
2023-04-10T23:01:35.500Z,99865.19
2023-04-10T23:04:02.868Z,99867.78
2023-04-10T23:06:30.509Z,99857.38
2023-04-10T23:08:59.837Z,99882.09
2023-04-10T23:11:39.018Z,99897.72
2023-04-10T23:14:15.819Z,99829.59
2023-04-10T23:16:51.441Z,99854.31
2023-04-10T23:19:20.512Z,99800.69
2023-04-10T23:21:54.464Z,99883.84
2023-04-10T23:24:22.022Z,99897.63
2023-04-10T23:26:48.869Z,99904.63
2023-04-10T23:29:16.491Z,99901.97
2023-04-10T23:31:43.645Z,99832.59
2023-04-10T23:34:13.555Z,99826.03
2023-04-10T23:36:41.686Z,99779.69
2023-04-10T23:39:08.798Z,99901.97
2023-04-10T23:41:35.993Z,99895.53
2023-04-10T23:44:02.792Z,99907.53
2023-04-10T23:46:30.706Z,99926.25
2023-04-10T23:48:57.507Z,99946.75
2023-04-10T23:51:24.459Z,99913.47
2023-04-10T23:53:51.288Z,99919.53
2023-04-10T23:56:17.949Z,99912.25
2023-04-10T23:58:44.484Z,99931.31
